Time;durP1;ratioP1;P1;durP2;ratioP2;P2;SDS_P1;SDS_P2;PMS_P1;PMS_P2;Temp;Humidity;BMP_temperature;BMP_pressure;BME280_temperature;BME280_humidity;BME280_pressure;Samples;Min_cycle;Max_cycle;Signal;HPM_P1;HPM_P2
2021/08/11 00:03:51;;;;;;;6.15;3.45;;;22.40;66.60;;;;;;10001260;28;20049;-66
2021/08/11 00:08:46;;;;;;;7.32;3.35;;;22.30;66.90;;;;;;10000096;28;20034;-65
2021/08/11 00:13:37;;;;;;;6.65;3.63;;;22.30;67.50;;;;;;9998505;28;20561;-66
2021/08/11 00:18:28;;;;;;;7.80;2.85;;;22.30;67.40;;;;;;10001512;28;20022;-65
2021/08/11 00:23:19;;;;;;;5.53;3.50;;;22.30;67.80;;;;;;10001919;28;20030;-67
2021/08/11 00:28:09;;;;;;;6.20;3.30;;;22.30;67.80;;;;;;10000347;28;20056;-66
2021/08/11 00:33:00;;;;;;;4.55;3.28;;;22.20;68.20;;;;;;9995586;28;20097;-66
2021/08/11 00:37:50;;;;;;;7.22;3.55;;;22.00;68.50;;;;;;9999428;28;20026;-64
2021/08/11 00:42:41;;;;;;;4.22;3.05;;;22.10;68.90;;;;;;9999000;28;20034;-65
2021/08/11 00:47:37;;;;;;;6.93;3.08;;;22.10;69.00;;;;;;9993604;28;20416;-65
2021/08/11 00:52:28;;;;;;;6.55;3.00;;;22.20;69.00;;;;;;9994729;28;20370;-66
2021/08/11 00:57:20;;;;;;;5.78;3.10;;;22.00;69.50;;;;;;10000902;28;20080;-66
2021/08/11 01:02:15;;;;;;;4.93;2.88;;;22.00;69.90;;;;;;9996094;28;20045;-66
2021/08/11 01:07:06;;;;;;;;;;;21.90;70.20;;;;;;9996549;28;20026;-65
2021/08/11 01:11:58;;;;;;;5.30;2.83;;;21.80;70.50;;;;;;9999218;28;20429;-65
2021/08/11 01:16:49;;;;;;;5.40;3.00;;;21.60;70.20;;;;;;9995359;28;20056;-65
2021/08/11 01:21:47;;;;;;;6.13;3.05;;;21.60;70.70;;;;;;9997269;28;20404;-65
2021/08/11 01:26:57;;;;;;;6.07;3.50;;;21.60;70.90;;;;;;9996451;28;20029;-67
2021/08/11 01:31:57;;;;;;;7.35;2.70;;;21.50;71.20;;;;;;9996825;28;20279;-65
2021/08/11 01:36:58;;;;;;;3.63;2.70;;;21.60;71.30;;;;;;9995209;28;20400;-65
2021/08/11 01:41:56;;;;;;;4.25;3.30;;;21.60;71.60;;;;;;9996831;28;20121;-65
2021/08/11 01:46:49;;;;;;;6.32;3.13;;;21.60;71.50;;;;;;9994323;28;20033;-65
2021/08/11 01:51:45;;;;;;;7.05;2.97;;;21.60;71.70;;;;;;9997447;28;20128;-65
2021/08/11 01:56:38;;;;;;;4.30;2.70;;;21.50;72.00;;;;;;9993924;28;20158;-64
2021/08/11 02:01:29;;;;;;;3.83;3.03;;;21.50;72.30;;;;;;10001790;28;20048;-65
2021/08/11 02:06:20;;;;;;;5.43;3.03;;;21.40;72.50;;;;;;9999186;28;20456;-64
2021/08/11 02:11:12;;;;;;;6.93;3.30;;;21.30;72.80;;;;;;10016206;28;20044;-65
2021/08/11 02:16:03;;;;;;;5.97;3.17;;;21.30;73.00;;;;;;9999403;28;20060;-66
2021/08/11 02:20:54;;;;;;;3.95;3.10;;;21.30;73.20;;;;;;9993716;28;20030;-65
2021/08/11 02:25:51;;;;;;;4.18;3.03;;;21.20;73.30;;;;;;9998703;28;20044;-64
2021/08/11 02:31:09;;;;;;;6.70;2.78;;;21.00;73.90;;;;;;9995226;28;20121;-65
2021/08/11 02:36:07;;;;;;;5.10;2.58;;;21.30;73.90;;;;;;9998984;28;20199;-64
2021/08/11 02:41:11;;;;;;;4.53;2.60;;;21.30;73.70;;;;;;10001147;28;20022;-65
2021/08/11 02:46:10;;;;;;;3.78;2.63;;;21.30;74.00;;;;;;9994476;28;20030;-65
2021/08/11 02:51:03;;;;;;;5.38;2.95;;;21.20;74.40;;;;;;9994526;28;20475;-65
2021/08/11 02:55:55;;;;;;;3.83;2.58;;;21.20;74.40;;;;;;9991426;28;20037;-64
2021/08/11 03:00:48;;;;;;;3.65;2.30;;;21.20;74.50;;;;;;9995482;28;20030;-66
2021/08/11 03:05:39;;;;;;;6.57;2.80;;;21.10;74.60;;;;;;9994946;28;20033;-65
2021/08/11 03:10:30;;;;;;;4.88;2.50;;;21.20;74.60;;;;;;9990596;28;20136;-66
2021/08/11 03:15:22;;;;;;;6.00;3.00;;;21.00;75.10;;;;;;9992816;28;20316;-65
2021/08/11 03:20:12;;;;;;;4.32;2.53;;;21.00;75.30;;;;;;9986368;28;20037;-66
2021/08/11 03:25:05;;;;;;;3.22;2.60;;;21.00;75.40;;;;;;9998340;28;20097;-65
2021/08/11 03:29:55;;;;;;;3.67;3.03;;;21.00;75.50;;;;;;9989774;28;20637;-65
2021/08/11 03:34:46;;;;;;;4.60;2.42;;;21.10;75.40;;;;;;9996383;28;20056;-66
2021/08/11 03:39:37;;;;;;;5.72;2.50;;;21.00;75.40;;;;;;9989410;28;20253;-65
2021/08/11 03:44:27;;;;;;;4.55;2.90;;;21.10;75.60;;;;;;9997885;28;20435;-64
2021/08/11 03:49:19;;;;;;;5.28;2.58;;;21.10;75.70;;;;;;9994112;28;20022;-65
2021/08/11 03:54:10;;;;;;;3.72;3.13;;;21.10;75.80;;;;;;9990583;28;20350;-65
2021/08/11 03:59:00;;;;;;;6.80;3.00;;;21.00;75.90;;;;;;9990606;28;20055;-66
2021/08/11 04:03:51;;;;;;;4.50;2.53;;;21.00;76.00;;;;;;9992293;28;20480;-66
2021/08/11 04:08:41;;;;;;;3.88;2.40;;;21.10;76.10;;;;;;9998295;28;20026;-65
2021/08/11 04:13:32;;;;;;;4.40;2.83;;;21.20;76.00;;;;;;9993812;28;20241;-66
2021/08/11 04:18:23;;;;;;;5.30;2.55;;;21.00;76.40;;;;;;9990383;28;20029;-65
2021/08/11 04:23:13;;;;;;;4.38;2.78;;;20.90;76.30;;;;;;9986738;28;20022;-65
2021/08/11 04:28:04;;;;;;;4.13;2.28;;;20.90;76.30;;;;;;9993561;28;20022;-65
2021/08/11 04:32:55;;;;;;;3.85;2.67;;;20.90;76.50;;;;;;9995195;28;20061;-64
2021/08/11 04:37:45;;;;;;;5.07;2.85;;;20.80;76.30;;;;;;9998982;28;20045;-65
2021/08/11 04:42:36;;;;;;;4.00;2.72;;;20.90;76.30;;;;;;9992676;28;20461;-65
2021/08/11 04:47:27;;;;;;;4.65;2.60;;;21.00;76.30;;;;;;9997965;28;20026;-64
2021/08/11 04:52:18;;;;;;;4.40;2.83;;;21.00;76.50;;;;;;10003724;28;20081;-65
2021/08/11 04:57:08;;;;;;;6.40;3.10;;;21.10;76.30;;;;;;9993834;28;20026;-66
2021/08/11 05:01:59;;;;;;;4.70;2.70;;;21.10;76.40;;;;;;10008622;28;20033;-66
2021/08/11 05:06:50;;;;;;;4.32;3.17;;;21.00;76.20;;;;;;9999578;28;20452;-66
2021/08/11 05:11:41;;;;;;;5.25;2.83;;;21.00;76.50;;;;;;10000601;28;20025;-66
2021/08/11 05:16:32;;;;;;;4.72;2.88;;;21.10;76.60;;;;;;10001470;28;20043;-66
2021/08/11 05:21:26;;;;;;;3.92;2.33;;;21.20;76.30;;;;;;9999649;28;20033;-67
2021/08/11 05:26:17;;;;;;;4.30;2.57;;;21.20;76.10;;;;;;10000981;28;20023;-66
2021/08/11 05:31:08;;;;;;;6.45;3.25;;;21.40;75.80;;;;;;10003763;28;20077;-67
2021/08/11 05:35:59;;;;;;;6.90;3.00;;;21.60;75.70;;;;;;9997095;28;20467;-64
2021/08/11 05:40:49;;;;;;;4.53;2.97;;;21.40;75.70;;;;;;10000813;28;20455;-65
2021/08/11 05:45:40;;;;;;;4.07;2.60;;;21.40;76.00;;;;;;9999266;28;20025;-65
2021/08/11 05:50:31;;;;;;;4.43;3.38;;;21.50;76.00;;;;;;9995487;28;20160;-66
2021/08/11 05:55:21;;;;;;;5.60;3.30;;;21.50;75.80;;;;;;9994999;28;20431;-65
2021/08/11 06:00:12;;;;;;;3.85;2.53;;;21.30;76.30;;;;;;9996611;28;20238;-66
2021/08/11 06:05:05;;;;;;;6.45;3.17;;;21.30;76.70;;;;;;10000643;28;20046;-66
2021/08/11 06:09:55;;;;;;;5.60;3.47;;;21.40;76.40;;;;;;9989838;28;20167;-66
2021/08/11 06:14:46;;;;;;;5.60;2.80;;;21.50;76.30;;;;;;9997257;28;20121;-65
2021/08/11 06:19:36;;;;;;;4.63;3.22;;;21.80;75.90;;;;;;10001354;28;20185;-70
2021/08/11 06:24:27;;;;;;;6.65;3.28;;;21.80;75.90;;;;;;9994794;28;20022;-67
2021/08/11 06:29:18;;;;;;;6.47;3.03;;;21.80;76.00;;;;;;10002190;28;20535;-66
2021/08/11 06:34:08;;;;;;;5.45;3.33;;;21.90;76.00;;;;;;9998500;28;20129;-68
2021/08/11 06:38:59;;;;;;;3.80;2.63;;;22.00;75.60;;;;;;10000793;28;20034;-67
2021/08/11 06:43:49;;;;;;;7.13;3.50;;;21.90;76.00;;;;;;10002051;28;20067;-67
2021/08/11 06:48:40;;;;;;;6.80;3.13;;;22.10;75.70;;;;;;9996423;28;20022;-68
2021/08/11 06:53:32;;;;;;;4.22;3.03;;;22.40;75.00;;;;;;10000299;28;20277;-69
2021/08/11 06:58:22;;;;;;;6.95;3.25;;;22.60;74.40;;;;;;10000860;28;20364;-64
2021/08/11 07:03:13;;;;;;;3.65;2.83;;;22.60;74.20;;;;;;9997719;28;20030;-66
2021/08/11 07:08:04;;;;;;;3.85;3.20;;;22.40;74.50;;;;;;9998479;28;20117;-68
2021/08/11 07:12:54;;;;;;;4.38;3.42;;;22.20;74.60;;;;;;9999263;28;20178;-66
2021/08/11 07:17:55;;;;;;;4.07;3.08;;;22.50;74.00;;;;;;10003873;28;20026;-66
2021/08/11 07:22:46;;;;;;;4.22;3.22;;;22.70;73.40;;;;;;10000423;28;20391;-65
2021/08/11 07:27:37;;;;;;;4.97;3.22;;;22.80;73.20;;;;;;10002015;28;20041;-66
2021/08/11 07:32:28;;;;;;;6.20;3.17;;;22.60;73.20;;;;;;10002865;28;20212;-68
2021/08/11 07:37:18;;;;;;;5.90;2.97;;;22.70;73.10;;;;;;9999107;28;20101;-68
2021/08/11 07:42:09;;;;;;;5.20;2.72;;;22.90;72.70;;;;;;9999383;28;20026;-70
2021/08/11 07:47:00;;;;;;;6.13;3.75;;;22.90;72.40;;;;;;9998014;28;20044;-67
2021/08/11 07:51:50;;;;;;;4.50;3.17;;;23.20;72.20;;;;;;9996306;28;20524;-70
2021/08/11 07:56:41;;;;;;;4.97;2.92;;;23.20;71.80;;;;;;9998489;28;20026;-71
2021/08/11 08:01:32;;;;;;;5.22;4.22;;;23.50;71.40;;;;;;9999467;28;20049;-67
2021/08/11 08:06:22;;;;;;;5.25;3.20;;;23.50;71.10;;;;;;9998419;28;20348;-68
2021/08/11 08:11:13;;;;;;;8.57;3.30;;;23.50;71.10;;;;;;9991549;28;20077;-69
2021/08/11 08:16:04;;;;;;;5.22;3.08;;;23.60;71.10;;;;;;10016335;28;20102;-70
2021/08/11 08:20:55;;;;;;;5.32;2.97;;;23.60;70.90;;;;;;10002629;28;20025;-71
2021/08/11 08:25:47;;;;;;;4.65;2.80;;;23.80;70.60;;;;;;10004191;28;20025;-72
2021/08/11 08:30:39;;;;;;;6.88;4.07;;;23.80;70.80;;;;;;10006444;28;20034;-70
2021/08/11 08:35:30;;;;;;;6.72;3.25;;;23.80;70.10;;;;;;10008302;28;20030;-67
2021/08/11 08:40:20;;;;;;;6.78;3.67;;;23.80;70.10;;;;;;9997684;28;20714;-66
2021/08/11 08:45:13;;;;;;;6.90;3.60;;;24.00;69.70;;;;;;10002643;28;20072;-66
2021/08/11 08:50:05;;;;;;;5.22;2.75;;;24.00;69.40;;;;;;10002252;28;20042;-65
2021/08/11 08:54:58;;;;;;;3.67;3.03;;;24.00;69.60;;;;;;10002476;28;20714;-66
2021/08/11 08:59:49;;;;;;;5.50;3.63;;;24.10;69.30;;;;;;10001118;28;20292;-67
2021/08/11 09:04:40;;;;;;;3.58;2.42;;;24.20;69.10;;;;;;10013906;28;20030;-68
2021/08/11 09:09:38;;;;;;;6.03;3.58;;;24.10;69.10;;;;;;10001958;28;20124;-65
2021/08/11 09:14:29;;;;;;;4.90;2.90;;;24.10;69.10;;;;;;9997703;28;20042;-66
2021/08/11 09:19:20;;;;;;;4.78;3.22;;;24.20;68.90;;;;;;9997749;28;20026;-67
2021/08/11 09:24:18;;;;;;;5.03;3.42;;;24.50;68.80;;;;;;9999160;28;20603;-67
2021/08/11 09:29:08;;;;;;;10.55;3.42;;;24.50;68.60;;;;;;10004221;28;20027;-66
2021/08/11 09:34:01;;;;;;;5.45;2.92;;;24.60;68.30;;;;;;9996193;28;20046;-69
2021/08/11 09:39:01;;;;;;;4.70;3.35;;;24.60;68.40;;;;;;9995895;28;20065;-65
2021/08/11 09:44:10;;;;;;;4.07;2.78;;;24.70;68.20;;;;;;9993526;28;20030;-64
2021/08/11 09:49:01;;;;;;;5.45;2.97;;;24.90;67.90;;;;;;9997674;28;20107;-65
2021/08/11 09:53:52;;;;;;;4.88;2.78;;;24.90;68.00;;;;;;9994545;28;20041;-64
2021/08/11 09:58:59;;;;;;;5.60;2.70;;;25.00;67.90;;;;;;10004543;28;20018;-65
2021/08/11 10:04:04;;;;;;;6.65;3.22;;;25.00;67.60;;;;;;9992770;28;20519;-68
2021/08/11 10:08:55;;;;;;;;;;;25.20;67.00;;;;;;10004003;28;20137;-69
2021/08/11 10:13:46;;;;;;;3.58;3.05;;;25.20;66.60;;;;;;9998401;28;19926;-70
2021/08/11 10:18:39;;;;;;;4.35;3.95;;;25.20;66.80;;;;;;10002958;28;20080;-68
2021/08/11 10:23:30;;;;;;;6.78;3.03;;;25.40;66.30;;;;;;10013183;28;20041;-70
2021/08/11 10:28:23;;;;;;;6.28;3.03;;;25.60;65.80;;;;;;9999549;28;20432;-70
2021/08/11 10:33:19;;;;;;;6.18;2.97;;;25.70;65.50;;;;;;10017648;28;20034;-70
2021/08/11 10:38:10;;;;;;;7.60;3.55;;;25.80;65.50;;;;;;9997252;28;20107;-64
2021/08/11 10:43:01;;;;;;;5.93;4.22;;;25.70;65.50;;;;;;9997075;28;20033;-65
2021/08/11 10:47:52;;;;;;;5.03;3.22;;;25.90;65.20;;;;;;10000390;28;20036;-65
2021/08/11 10:52:44;;;;;;;5.95;3.35;;;26.00;64.90;;;;;;9999121;28;20428;-66
2021/08/11 10:57:38;;;;;;;7.60;3.40;;;26.00;64.90;;;;;;9998635;28;20038;-69
2021/08/11 11:02:41;;;;;;;6.00;2.85;;;25.90;64.80;;;;;;9994688;28;20197;-66
2021/08/11 11:07:32;;;;;;;6.25;3.65;;;26.00;64.50;;;;;;9998099;28;20018;-65
2021/08/11 11:12:22;;;;;;;5.53;2.95;;;26.40;64.10;;;;;;9994676;28;20038;-66
2021/08/11 11:17:14;;;;;;;5.63;3.08;;;26.50;64.00;;;;;;9997089;28;20408;-69
2021/08/11 11:22:33;;;;;;;5.80;3.53;;;26.40;63.80;;;;;;9995064;28;20096;-67
2021/08/11 11:27:43;;;;;;;6.03;3.45;;;26.20;63.00;;;;;;9999413;28;20109;-65
2021/08/11 11:32:35;;;;;;;5.40;3.80;;;26.10;63.90;;;;;;10007160;28;20072;-65
2021/08/11 11:37:26;;;;;;;5.18;3.38;;;26.30;63.50;;;;;;9998565;28;20491;-68
2021/08/11 11:42:25;;;;;;;5.18;3.22;;;27.00;62.60;;;;;;9995543;28;20475;-64
2021/08/11 11:47:37;;;;;;;5.00;3.90;;;27.30;62.10;;;;;;9991739;28;20026;-67
2021/08/11 11:52:28;;;;;;;5.93;2.70;;;27.30;61.10;;;;;;9997806;28;20316;-69
2021/08/11 11:57:19;;;;;;;4.82;2.30;;;27.40;61.60;;;;;;9992537;28;20087;-71
2021/08/11 12:02:21;;;;;;;5.05;2.45;;;27.40;61.40;;;;;;9999116;28;20087;-69
2021/08/11 12:07:31;;;;;;;2.90;2.33;;;27.40;60.70;;;;;;10009076;28;20030;-66
2021/08/11 12:12:22;;;;;;;3.58;2.55;;;27.60;60.40;;;;;;10012223;28;20093;-64
2021/08/11 12:17:30;;;;;;;4.85;2.40;;;28.00;59.90;;;;;;9992907;28;20104;-66
2021/08/11 12:22:34;;;;;;;5.95;2.55;;;27.80;59.30;;;;;;9996165;28;20022;-71
2021/08/11 12:27:25;;;;;;;2.83;2.13;;;27.40;60.20;;;;;;9990884;28;20038;-66
2021/08/11 12:32:16;;;;;;;3.65;2.47;;;27.90;60.10;;;;;;9992738;28;20053;-65
2021/08/11 12:37:07;;;;;;;3.53;2.15;;;28.60;59.40;;;;;;9993796;28;20034;-66
2021/08/11 12:42:06;;;;;;;2.80;2.47;;;28.60;58.90;;;;;;9993414;28;20034;-66
2021/08/11 12:47:03;;;;;;;4.32;2.55;;;28.50;58.50;;;;;;9995155;28;20527;-65
2021/08/11 12:52:06;;;;;;;4.40;2.35;;;27.90;59.20;;;;;;9991512;28;20505;-68
2021/08/11 12:56:59;;;;;;;;;;;28.40;58.70;;;;;;9992449;28;20019;-70
2021/08/11 13:01:50;;;;;;;3.58;2.22;;;29.10;58.50;;;;;;9997287;28;20449;-69
2021/08/11 13:06:46;;;;;;;5.25;2.60;;;29.60;58.70;;;;;;10002024;28;20174;-69
2021/08/11 13:12:07;;;;;;;3.75;2.63;;;31.30;57.30;;;;;;9994633;28;20088;-70
2021/08/11 13:17:03;;;;;;;2.83;2.17;;;33.20;54.00;;;;;;9992599;28;20077;-69
2021/08/11 13:21:54;;;;;;;5.43;2.15;;;34.20;53.00;;;;;;9993888;28;20026;-66
2021/08/11 13:26:45;;;;;;;2.85;1.98;;;35.20;51.10;;;;;;10002555;28;20386;-62
2021/08/11 13:31:35;;;;;;;3.80;2.60;;;36.40;48.50;;;;;;9996854;28;20334;-63
2021/08/11 13:36:28;;;;;;;2.80;2.60;;;37.40;46.70;;;;;;9989629;28;20041;-65
2021/08/11 13:41:19;;;;;;;3.72;2.53;;;38.20;44.50;;;;;;10002473;28;20401;-64
2021/08/11 13:46:09;;;;;;;;;;;37.30;43.40;;;;;;9997289;28;20821;-65
2021/08/11 13:51:00;;;;;;;3.17;2.47;;;36.30;45.00;;;;;;10004108;28;19929;-62
2021/08/11 13:55:51;;;;;;;3.03;2.70;;;35.20;46.30;;;;;;9996511;28;20748;-64
2021/08/11 14:00:41;;;;;;;5.97;3.30;;;33.60;46.80;;;;;;10000738;28;20068;-62
2021/08/11 14:05:32;;;;;;;9.10;3.70;;;36.10;44.80;;;;;;10002605;28;20496;-62
2021/08/11 14:10:23;;;;;;;2.70;2.42;;;36.60;42.70;;;;;;10000400;28;20603;-64
2021/08/11 14:15:14;;;;;;;4.93;2.40;;;35.40;42.50;;;;;;9999206;28;20050;-65
2021/08/11 14:20:05;;;;;;;2.47;2.27;;;35.30;42.70;;;;;;9999617;28;20034;-63
2021/08/11 14:24:56;;;;;;;3.38;3.08;;;35.70;42.80;;;;;;9993277;28;20053;-64
2021/08/11 14:29:48;;;;;;;2.63;2.35;;;37.80;41.30;;;;;;9997211;28;20068;-64
2021/08/11 14:34:38;;;;;;;3.80;3.13;;;38.70;39.70;;;;;;10000627;28;20048;-64
2021/08/11 14:39:29;;;;;;;6.35;2.80;;;39.30;38.40;;;;;;9994179;28;20034;-64
2021/08/11 14:44:22;;;;;;;2.75;2.55;;;38.30;38.70;;;;;;10015238;28;20109;-63
2021/08/11 14:49:12;;;;;;;2.90;2.60;;;38.50;38.70;;;;;;10015860;28;20045;-65
2021/08/11 14:54:03;;;;;;;4.45;2.15;;;38.30;38.00;;;;;;9991254;28;20061;-66
2021/08/11 14:58:54;;;;;;;2.60;2.03;;;35.00;40.60;;;;;;9995448;28;20038;-65
2021/08/11 15:03:46;;;;;;;3.15;2.45;;;33.80;42.10;;;;;;9992012;28;20328;-64
2021/08/11 15:08:37;;;;;;;3.42;2.53;;;33.10;42.20;;;;;;9993352;28;20034;-62
2021/08/11 15:13:28;;;;;;;3.28;1.98;;;33.00;42.30;;;;;;9996788;28;20107;-66
2021/08/11 15:18:18;;;;;;;3.83;2.40;;;33.00;41.90;;;;;;9996054;28;20431;-66
2021/08/11 15:23:11;;;;;;;3.45;2.45;;;32.40;42.80;;;;;;9997237;28;20022;-61
2021/08/11 15:28:02;;;;;;;6.28;2.30;;;33.00;42.20;;;;;;9995789;28;20060;-61
2021/08/11 15:32:53;;;;;;;4.82;2.60;;;35.20;39.80;;;;;;9999172;28;20577;-64
2021/08/11 15:37:43;;;;;;;4.03;2.65;;;34.20;41.00;;;;;;9998810;28;20026;-74
2021/08/11 15:42:34;;;;;;;3.92;2.50;;;33.60;41.40;;;;;;9989507;28;20033;-76
2021/08/11 15:47:25;;;;;;;3.45;2.85;;;32.30;43.10;;;;;;9999686;28;20030;-72
2021/08/11 15:52:15;;;;;;;3.00;2.40;;;32.50;42.60;;;;;;9996522;28;20042;-67
2021/08/11 15:57:06;;;;;;;3.92;1.98;;;32.70;42.60;;;;;;9998897;28;20041;-77
2021/08/11 16:01:57;;;;;;;4.10;2.58;;;33.20;41.90;;;;;;10000440;28;20061;-65
2021/08/11 16:06:48;;;;;;;4.93;2.95;;;34.30;41.10;;;;;;9990393;28;20037;-67
2021/08/11 16:11:38;;;;;;;3.40;2.30;;;35.60;39.50;;;;;;9993246;28;20587;-67
2021/08/11 16:16:29;;;;;;;3.33;2.55;;;35.20;39.60;;;;;;9989567;28;20046;-72
2021/08/11 16:21:20;;;;;;;3.70;2.53;;;37.40;37.80;;;;;;9998805;28;20376;-70
2021/08/11 16:26:13;;;;;;;3.80;2.83;;;38.70;35.90;;;;;;9997388;28;20626;-71
2021/08/11 16:31:03;;;;;;;3.70;2.53;;;40.30;34.70;;;;;;9995255;28;20358;-73
2021/08/11 16:35:54;;;;;;;4.40;2.27;;;39.20;35.20;;;;;;9988624;28;20026;-73
2021/08/11 16:40:45;;;;;;;3.53;2.17;;;38.70;35.30;;;;;;9991486;28;20018;-73
2021/08/11 16:45:35;;;;;;;4.67;2.40;;;38.20;35.30;;;;;;9997614;28;20399;-66
2021/08/11 16:50:26;;;;;;;3.67;2.40;;;37.70;36.00;;;;;;10000972;28;20026;-75
2021/08/11 16:55:17;;;;;;;3.90;2.67;;;34.70;38.90;;;;;;9999395;28;20042;-65
2021/08/11 17:00:08;;;;;;;5.30;3.80;;;32.80;41.00;;;;;;10002717;28;20091;-66
2021/08/11 17:05:00;;;;;;;5.18;2.80;;;31.90;42.10;;;;;;10004931;28;20033;-68
2021/08/11 17:09:50;;;;;;;4.50;3.28;;;33.10;40.10;;;;;;10002969;28;20014;-70
2021/08/11 17:14:41;;;;;;;4.97;4.00;;;34.10;38.90;;;;;;9995524;28;20058;-65
2021/08/11 17:19:32;;;;;;;3.83;2.65;;;33.20;39.70;;;;;;9997827;28;20025;-68
2021/08/11 17:24:23;;;;;;;5.30;3.55;;;32.40;40.90;;;;;;10002238;28;20033;-67
2021/08/11 17:29:14;;;;;;;5.32;3.08;;;32.40;40.80;;;;;;10001063;28;20455;-67
2021/08/11 17:34:04;;;;;;;5.57;4.22;;;34.10;38.80;;;;;;9996155;28;20277;-67
2021/08/11 17:38:55;;;;;;;9.10;5.93;;;32.30;41.20;;;;;;9997039;28;20030;-65
2021/08/11 17:43:47;;;;;;;6.80;4.65;;;31.40;42.40;;;;;;9995490;28;20034;-66
2021/08/11 17:48:37;;;;;;;6.18;3.60;;;30.80;43.30;;;;;;9997067;28;20053;-65
2021/08/11 17:53:28;;;;;;;6.57;4.25;;;30.30;43.90;;;;;;9997302;28;20381;-65
2021/08/11 17:58:19;;;;;;;4.05;2.58;;;30.10;44.20;;;;;;9998405;28;20113;-64
2021/08/11 18:03:11;;;;;;;3.28;2.92;;;29.80;44.60;;;;;;9993937;28;20030;-66
2021/08/11 18:08:01;;;;;;;5.78;2.88;;;29.50;45.30;;;;;;9998372;28;20109;-66
2021/08/11 18:12:52;;;;;;;7.75;4.75;;;29.40;45.50;;;;;;10003845;28;20508;-66
2021/08/11 18:17:43;;;;;;;7.70;4.63;;;29.30;45.70;;;;;;9999096;28;20469;-66
2021/08/11 18:22:34;;;;;;;8.23;5.55;;;29.30;46.00;;;;;;10002678;28;20022;-66
2021/08/11 18:27:26;;;;;;;5.85;3.95;;;29.10;46.40;;;;;;10001913;28;20040;-65
2021/08/11 18:32:17;;;;;;;8.55;5.50;;;29.00;46.90;;;;;;10000544;28;20147;-67
2021/08/11 18:37:09;;;;;;;7.80;5.18;;;28.80;47.10;;;;;;10004167;28;20033;-68
2021/08/11 18:41:59;;;;;;;9.05;5.88;;;28.70;47.50;;;;;;10000587;28;20099;-66
2021/08/11 18:46:50;;;;;;;5.50;3.42;;;28.50;47.90;;;;;;9997429;28;20034;-68
2021/08/11 18:51:40;;;;;;;6.05;3.72;;;28.40;48.10;;;;;;9993299;28;20052;-65
2021/08/11 18:56:32;;;;;;;5.47;3.97;;;28.30;48.40;;;;;;9994639;28;20041;-65
2021/08/11 19:01:22;;;;;;;5.70;3.55;;;28.20;49.00;;;;;;9996983;28;20064;-63
2021/08/11 19:06:13;;;;;;;7.68;3.65;;;28.10;49.20;;;;;;9993163;28;20050;-68
2021/08/11 19:11:04;;;;;;;4.68;3.13;;;27.90;49.40;;;;;;10000328;28;20387;-65
2021/08/11 19:15:54;;;;;;;6.57;3.08;;;27.80;49.60;;;;;;9991398;28;20050;-65
2021/08/11 19:20:49;;;;;;;5.25;3.45;;;27.80;50.10;;;;;;9995008;28;20065;-64
2021/08/11 19:25:39;;;;;;;5.80;2.95;;;27.80;50.30;;;;;;9989287;28;20027;-66
2021/08/11 19:30:30;;;;;;;5.18;3.22;;;27.70;50.30;;;;;;9995293;28;20041;-67
2021/08/11 19:35:21;;;;;;;8.68;5.10;;;27.50;50.30;;;;;;10000998;28;20132;-66
2021/08/11 19:40:12;;;;;;;6.35;3.13;;;27.50;50.50;;;;;;9999066;28;20030;-66
2021/08/11 19:45:03;;;;;;;4.30;3.60;;;27.40;50.70;;;;;;9997203;28;20049;-69
2021/08/11 19:49:54;;;;;;;4.18;3.00;;;27.40;50.80;;;;;;10002424;28;20552;-67
2021/08/11 19:54:45;;;;;;;6.28;3.60;;;27.30;50.90;;;;;;9997957;28;20320;-65
2021/08/11 19:59:35;;;;;;;6.20;3.67;;;27.20;51.30;;;;;;9999133;28;20416;-65
2021/08/11 20:04:26;;;;;;;5.72;3.70;;;27.10;51.40;;;;;;9998650;28;20065;-65
2021/08/11 20:09:17;;;;;;;11.10;5.22;;;27.00;51.90;;;;;;9998816;28;20111;-64
2021/08/11 20:14:07;;;;;;;5.38;3.63;;;26.90;52.20;;;;;;10000333;28;20060;-65
2021/08/11 20:18:59;;;;;;;7.78;3.35;;;26.70;52.40;;;;;;10007059;28;20658;-65
2021/08/11 20:23:50;;;;;;;5.03;3.30;;;26.70;52.80;;;;;;10007571;28;20030;-67
2021/08/11 20:28:41;;;;;;;7.90;4.30;;;26.60;53.00;;;;;;10004038;28;20049;-66
2021/08/11 20:33:31;;;;;;;8.07;3.72;;;26.60;53.30;;;;;;9993857;28;20043;-64
2021/08/11 20:38:22;;;;;;;5.32;3.33;;;26.40;53.40;;;;;;10005301;28;20428;-65
2021/08/11 20:43:13;;;;;;;6.43;3.58;;;26.40;53.70;;;;;;9996008;28;20030;-64
2021/08/11 20:48:04;;;;;;;5.00;3.50;;;26.30;54.00;;;;;;9998755;28;20022;-66
2021/08/11 20:52:54;;;;;;;6.50;4.00;;;26.30;54.30;;;;;;9992822;28;20124;-67
2021/08/11 20:57:45;;;;;;;6.53;3.80;;;26.30;54.30;;;;;;9999508;28;20037;-66
2021/08/11 21:02:35;;;;;;;10.68;3.65;;;26.30;54.40;;;;;;9997919;28;20401;-67
2021/08/11 21:07:26;;;;;;;5.97;3.60;;;26.10;54.60;;;;;;10000776;28;20010;-67
2021/08/11 21:12:17;;;;;;;6.28;3.70;;;26.20;54.70;;;;;;9999172;28;20050;-66
2021/08/11 21:17:07;;;;;;;6.88;3.42;;;26.00;55.00;;;;;;10005154;28;20054;-67
2021/08/11 21:21:58;;;;;;;6.07;3.38;;;25.90;55.60;;;;;;10000881;28;20056;-68
2021/08/11 21:26:49;;;;;;;5.72;3.95;;;25.90;55.80;;;;;;9995887;28;20121;-67
2021/08/11 21:31:39;;;;;;;6.55;3.90;;;25.90;55.90;;;;;;10001665;28;20448;-67
2021/08/11 21:36:30;;;;;;;7.07;3.53;;;25.80;56.10;;;;;;9998677;28;20022;-67
2021/08/11 21:41:21;;;;;;;5.53;3.58;;;25.70;56.50;;;;;;10003007;28;20030;-67
2021/08/11 21:46:11;;;;;;;6.20;3.35;;;25.70;57.00;;;;;;9998435;28;20037;-66
2021/08/11 21:51:02;;;;;;;9.57;4.75;;;25.60;57.20;;;;;;9994706;28;20048;-66
2021/08/11 21:55:53;;;;;;;6.30;4.20;;;25.60;57.40;;;;;;9997566;28;20088;-66
2021/08/11 22:00:43;;;;;;;5.22;3.50;;;25.50;57.60;;;;;;9995488;28;20033;-66
2021/08/11 22:05:34;;;;;;;6.90;3.88;;;25.40;57.90;;;;;;9999556;28;20026;-68
2021/08/11 22:10:25;;;;;;;6.93;3.28;;;25.30;58.30;;;;;;9995520;28;20710;-68
2021/08/11 22:15:16;;;;;;;8.32;4.32;;;25.30;58.40;;;;;;10000524;28;20516;-68
2021/08/11 22:20:09;;;;;;;6.55;3.70;;;25.30;58.90;;;;;;9989894;28;20018;-68
2021/08/11 22:25:00;;;;;;;6.53;3.73;;;25.20;59.20;;;;;;10000135;28;20409;-67
2021/08/11 22:29:51;;;;;;;6.32;3.92;;;25.20;59.30;;;;;;9998995;28;20018;-67
2021/08/11 22:34:43;;;;;;;5.70;3.58;;;25.10;59.70;;;;;;9989953;28;20039;-67
2021/08/11 22:39:33;;;;;;;7.45;4.47;;;25.10;60.00;;;;;;10002867;28;20041;-66
2021/08/11 22:44:24;;;;;;;5.82;3.67;;;24.70;60.60;;;;;;10002735;28;20395;-67
2021/08/11 22:49:15;;;;;;;4.20;3.33;;;24.70;60.80;;;;;;9995588;28;20026;-69
2021/08/11 22:54:05;;;;;;;6.18;3.60;;;24.80;60.90;;;;;;9994222;28;20402;-67
2021/08/11 22:58:56;;;;;;;5.72;3.72;;;24.70;61.20;;;;;;10000099;28;20046;-66
2021/08/11 23:03:47;;;;;;;6.15;3.50;;;24.50;61.60;;;;;;9995440;28;20032;-66
2021/08/11 23:08:39;;;;;;;4.53;2.58;;;24.40;61.90;;;;;;10004230;28;20707;-67
2021/08/11 23:13:29;;;;;;;6.60;3.38;;;24.50;61.80;;;;;;9998874;28;20037;-67
2021/08/11 23:18:20;;;;;;;6.05;3.63;;;24.60;61.60;;;;;;9993701;28;20512;-67
2021/08/11 23:23:11;;;;;;;5.78;2.92;;;24.60;61.60;;;;;;9991513;28;20030;-67
2021/08/11 23:28:01;;;;;;;4.85;2.97;;;24.50;61.80;;;;;;9995444;28;20419;-67
2021/08/11 23:32:52;;;;;;;4.38;2.90;;;24.40;62.10;;;;;;9996572;28;20107;-66
2021/08/11 23:37:43;;;;;;;6.63;3.08;;;24.40;61.90;;;;;;9994883;28;20385;-66
2021/08/11 23:42:33;;;;;;;4.65;2.65;;;24.30;62.70;;;;;;9990599;28;20308;-66
2021/08/11 23:47:24;;;;;;;3.92;2.70;;;24.20;62.00;;;;;;9988324;28;20046;-66
2021/08/11 23:52:15;;;;;;;4.97;2.85;;;24.10;62.20;;;;;;9991223;28;20339;-66
2021/08/11 23:57:06;;;;;;;5.15;3.20;;;24.00;62.60;;;;;;9997792;28;20330;-66
